sensor_id;sensor_type;location;lat;lon;timestamp;temperature;humidity
36716;DHT22;22699;51.034;3.730;2022-11-15T00:01:53;11.70;99.90
36716;DHT22;22699;51.034;3.730;2022-11-15T00:04:19;11.50;99.90
36716;DHT22;22699;51.034;3.730;2022-11-15T00:06:44;11.60;99.90
36716;DHT22;22699;51.034;3.730;2022-11-15T00:09:10;11.60;99.90
36716;DHT22;22699;51.034;3.730;2022-11-15T00:11:35;11.50;99.90
36716;DHT22;22699;51.034;3.730;2022-11-15T00:14:01;11.60;99.90
36716;DHT22;22699;51.034;3.730;2022-11-15T00:16:29;11.70;99.90
36716;DHT22;22699;51.034;3.730;2022-11-15T00:18:55;11.80;99.90
36716;DHT22;22699;51.034;3.730;2022-11-15T00:21:22;11.60;99.90
36716;DHT22;22699;51.034;3.730;2022-11-15T00:23:48;11.50;99.90
36716;DHT22;22699;51.034;3.730;2022-11-15T00:26:14;11.80;99.90
36716;DHT22;22699;51.034;3.730;2022-11-15T00:28:41;11.70;99.90
36716;DHT22;22699;51.034;3.730;2022-11-15T00:31:11;11.80;99.90
36716;DHT22;22699;51.034;3.730;2022-11-15T00:33:37;11.80;99.90
36716;DHT22;22699;51.034;3.730;2022-11-15T00:36:07;12.00;99.90
36716;DHT22;22699;51.034;3.730;2022-11-15T00:38:36;11.90;99.90
36716;DHT22;22699;51.034;3.730;2022-11-15T00:41:03;11.90;99.90
36716;DHT22;22699;51.034;3.730;2022-11-15T00:43:29;11.90;99.90
36716;DHT22;22699;51.034;3.730;2022-11-15T00:45:54;11.90;99.90
36716;DHT22;22699;51.034;3.730;2022-11-15T00:48:20;12.00;99.90
36716;DHT22;22699;51.034;3.730;2022-11-15T00:50:46;12.10;99.90
36716;DHT22;22699;51.034;3.730;2022-11-15T00:53:12;12.10;99.90
36716;DHT22;22699;51.034;3.730;2022-11-15T00:55:37;12.20;99.90
36716;DHT22;22699;51.034;3.730;2022-11-15T00:58:03;11.90;99.90
36716;DHT22;22699;51.034;3.730;2022-11-15T01:00:29;12.10;99.90
36716;DHT22;22699;51.034;3.730;2022-11-15T01:02:54;12.10;99.90
36716;DHT22;22699;51.034;3.730;2022-11-15T01:05:20;11.80;99.90
36716;DHT22;22699;51.034;3.730;2022-11-15T01:07:46;11.80;99.90
36716;DHT22;22699;51.034;3.730;2022-11-15T01:10:11;11.80;99.90
36716;DHT22;22699;51.034;3.730;2022-11-15T01:12:37;11.70;99.90
36716;DHT22;22699;51.034;3.730;2022-11-15T01:15:04;11.70;99.90
36716;DHT22;22699;51.034;3.730;2022-11-15T01:17:31;11.60;99.90
36716;DHT22;22699;51.034;3.730;2022-11-15T01:19:56;11.80;99.90
36716;DHT22;22699;51.034;3.730;2022-11-15T01:22:22;11.60;99.90
36716;DHT22;22699;51.034;3.730;2022-11-15T01:24:50;11.80;99.90
36716;DHT22;22699;51.034;3.730;2022-11-15T01:27:16;11.80;99.90
36716;DHT22;22699;51.034;3.730;2022-11-15T01:29:42;11.60;99.90
36716;DHT22;22699;51.034;3.730;2022-11-15T01:32:07;11.70;99.90
36716;DHT22;22699;51.034;3.730;2022-11-15T01:34:33;11.60;99.90
36716;DHT22;22699;51.034;3.730;2022-11-15T01:36:59;11.70;99.90
36716;DHT22;22699;51.034;3.730;2022-11-15T01:39:24;11.90;99.90
36716;DHT22;22699;51.034;3.730;2022-11-15T01:41:53;11.90;99.90
36716;DHT22;22699;51.034;3.730;2022-11-15T01:46:57;12.10;99.90
36716;DHT22;22699;51.034;3.730;2022-11-15T01:49:26;12.00;99.90
36716;DHT22;22699;51.034;3.730;2022-11-15T01:51:53;11.90;99.90
36716;DHT22;22699;51.034;3.730;2022-11-15T01:54:20;11.90;99.90
36716;DHT22;22699;51.034;3.730;2022-11-15T01:56:53;11.90;99.90
36716;DHT22;22699;51.034;3.730;2022-11-15T01:59:21;12.10;99.90
36716;DHT22;22699;51.034;3.730;2022-11-15T02:01:47;11.90;99.90
36716;DHT22;22699;51.034;3.730;2022-11-15T02:04:26;11.90;99.90
36716;DHT22;22699;51.034;3.730;2022-11-15T02:06:52;11.80;99.90
36716;DHT22;22699;51.034;3.730;2022-11-15T02:09:18;11.90;99.90
36716;DHT22;22699;51.034;3.730;2022-11-15T02:11:45;12.00;99.90
36716;DHT22;22699;51.034;3.730;2022-11-15T02:14:13;11.90;99.90
36716;DHT22;22699;51.034;3.730;2022-11-15T02:33:08;12.00;99.90
36716;DHT22;22699;51.034;3.730;2022-11-15T02:43:38;12.30;99.90
36716;DHT22;22699;51.034;3.730;2022-11-15T02:49:21;12.10;99.90
36716;DHT22;22699;51.034;3.730;2022-11-15T02:51:49;12.20;99.90
36716;DHT22;22699;51.034;3.730;2022-11-15T02:54:25;11.80;99.90
36716;DHT22;22699;51.034;3.730;2022-11-15T02:56:54;11.80;99.90
36716;DHT22;22699;51.034;3.730;2022-11-15T03:10:36;11.70;99.90
36716;DHT22;22699;51.034;3.730;2022-11-15T03:13:27;11.80;99.90
36716;DHT22;22699;51.034;3.730;2022-11-15T03:16:04;11.90;99.90
36716;DHT22;22699;51.034;3.730;2022-11-15T03:18:40;11.80;99.90
36716;DHT22;22699;51.034;3.730;2022-11-15T03:21:08;11.50;99.90
36716;DHT22;22699;51.034;3.730;2022-11-15T03:23:39;11.50;99.90
36716;DHT22;22699;51.034;3.730;2022-11-15T03:26:08;11.70;99.90
36716;DHT22;22699;51.034;3.730;2022-11-15T03:28:46;11.70;99.90
36716;DHT22;22699;51.034;3.730;2022-11-15T03:31:15;11.70;99.90
36716;DHT22;22699;51.034;3.730;2022-11-15T03:34:04;11.60;99.90
36716;DHT22;22699;51.034;3.730;2022-11-15T03:36:30;11.70;99.90
36716;DHT22;22699;51.034;3.730;2022-11-15T03:39:01;11.80;99.90
36716;DHT22;22699;51.034;3.730;2022-11-15T03:46:47;11.70;99.90
36716;DHT22;22699;51.034;3.730;2022-11-15T03:49:22;11.60;99.90
36716;DHT22;22699;51.034;3.730;2022-11-15T03:51:50;11.80;99.90
36716;DHT22;22699;51.034;3.730;2022-11-15T03:54:15;11.80;99.90
36716;DHT22;22699;51.034;3.730;2022-11-15T03:56:41;11.60;99.90
36716;DHT22;22699;51.034;3.730;2022-11-15T03:59:07;11.50;99.90
36716;DHT22;22699;51.034;3.730;2022-11-15T04:01:32;11.50;99.90
36716;DHT22;22699;51.034;3.730;2022-11-15T04:03:58;11.60;99.90
36716;DHT22;22699;51.034;3.730;2022-11-15T04:06:23;11.60;99.90
36716;DHT22;22699;51.034;3.730;2022-11-15T04:08:49;11.80;99.90
36716;DHT22;22699;51.034;3.730;2022-11-15T04:11:14;11.70;99.90
36716;DHT22;22699;51.034;3.730;2022-11-15T04:13:40;11.60;99.90
36716;DHT22;22699;51.034;3.730;2022-11-15T04:16:07;11.50;99.90
36716;DHT22;22699;51.034;3.730;2022-11-15T04:18:32;11.50;99.90
36716;DHT22;22699;51.034;3.730;2022-11-15T04:20:58;11.40;99.90
36716;DHT22;22699;51.034;3.730;2022-11-15T04:23:43;11.40;99.90
36716;DHT22;22699;51.034;3.730;2022-11-15T04:26:27;11.40;99.90
36716;DHT22;22699;51.034;3.730;2022-11-15T04:28:53;11.20;99.90
36716;DHT22;22699;51.034;3.730;2022-11-15T04:31:47;11.20;99.90
36716;DHT22;22699;51.034;3.730;2022-11-15T04:34:13;11.30;99.90
36716;DHT22;22699;51.034;3.730;2022-11-15T04:36:39;11.30;99.90
36716;DHT22;22699;51.034;3.730;2022-11-15T04:39:23;11.30;99.90
36716;DHT22;22699;51.034;3.730;2022-11-15T04:41:49;11.20;99.90
36716;DHT22;22699;51.034;3.730;2022-11-15T04:44:15;11.20;99.90
36716;DHT22;22699;51.034;3.730;2022-11-15T04:46:41;11.10;99.90
36716;DHT22;22699;51.034;3.730;2022-11-15T04:49:07;11.10;99.90
36716;DHT22;22699;51.034;3.730;2022-11-15T04:51:32;11.20;99.90
36716;DHT22;22699;51.034;3.730;2022-11-15T04:53:58;11.10;99.90
36716;DHT22;22699;51.034;3.730;2022-11-15T04:56:24;11.10;99.90
36716;DHT22;22699;51.034;3.730;2022-11-15T04:58:49;11.00;99.90
36716;DHT22;22699;51.034;3.730;2022-11-15T05:01:16;11.00;99.90
36716;DHT22;22699;51.034;3.730;2022-11-15T05:03:43;10.90;99.90
36716;DHT22;22699;51.034;3.730;2022-11-15T05:06:27;10.90;99.90
36716;DHT22;22699;51.034;3.730;2022-11-15T05:08:54;10.80;99.90
36716;DHT22;22699;51.034;3.730;2022-11-15T05:11:20;10.80;99.90
36716;DHT22;22699;51.034;3.730;2022-11-15T05:13:46;10.90;99.90
36716;DHT22;22699;51.034;3.730;2022-11-15T05:16:12;10.70;99.90
36716;DHT22;22699;51.034;3.730;2022-11-15T05:18:37;10.60;99.90
36716;DHT22;22699;51.034;3.730;2022-11-15T05:21:08;10.50;99.90
36716;DHT22;22699;51.034;3.730;2022-11-15T05:23:34;10.50;99.90
36716;DHT22;22699;51.034;3.730;2022-11-15T05:26:05;10.60;99.90
36716;DHT22;22699;51.034;3.730;2022-11-15T05:28:31;10.60;99.90
36716;DHT22;22699;51.034;3.730;2022-11-15T05:31:02;10.60;99.90
36716;DHT22;22699;51.034;3.730;2022-11-15T05:33:27;10.70;99.90
36716;DHT22;22699;51.034;3.730;2022-11-15T05:36:47;10.70;99.90
36716;DHT22;22699;51.034;3.730;2022-11-15T05:38:49;10.60;99.90
36716;DHT22;22699;51.034;3.730;2022-11-15T05:41:20;10.40;99.90
36716;DHT22;22699;51.034;3.730;2022-11-15T05:43:48;10.40;99.90
36716;DHT22;22699;51.034;3.730;2022-11-15T05:46:15;10.30;99.90
36716;DHT22;22699;51.034;3.730;2022-11-15T05:48:45;10.50;99.90
36716;DHT22;22699;51.034;3.730;2022-11-15T05:51:14;10.20;99.90
36716;DHT22;22699;51.034;3.730;2022-11-15T05:53:40;10.20;99.90
36716;DHT22;22699;51.034;3.730;2022-11-15T05:56:08;10.20;99.90
36716;DHT22;22699;51.034;3.730;2022-11-15T05:58:34;10.20;99.90
36716;DHT22;22699;51.034;3.730;2022-11-15T06:01:00;10.10;99.90
36716;DHT22;22699;51.034;3.730;2022-11-15T06:03:26;10.10;99.90
36716;DHT22;22699;51.034;3.730;2022-11-15T06:05:51;10.10;99.90
36716;DHT22;22699;51.034;3.730;2022-11-15T06:08:17;10.20;99.90
36716;DHT22;22699;51.034;3.730;2022-11-15T06:10:43;10.10;99.90
36716;DHT22;22699;51.034;3.730;2022-11-15T06:13:08;10.10;99.90
36716;DHT22;22699;51.034;3.730;2022-11-15T06:15:34;10.00;99.90
36716;DHT22;22699;51.034;3.730;2022-11-15T06:18:00;9.90;99.90
36716;DHT22;22699;51.034;3.730;2022-11-15T06:20:27;10.00;99.90
36716;DHT22;22699;51.034;3.730;2022-11-15T06:22:58;10.10;99.90
36716;DHT22;22699;51.034;3.730;2022-11-15T06:25:24;9.90;99.90
36716;DHT22;22699;51.034;3.730;2022-11-15T06:27:54;9.90;99.90
36716;DHT22;22699;51.034;3.730;2022-11-15T06:30:20;9.90;99.90
36716;DHT22;22699;51.034;3.730;2022-11-15T06:32:46;9.80;99.90
36716;DHT22;22699;51.034;3.730;2022-11-15T06:35:13;9.90;99.90
36716;DHT22;22699;51.034;3.730;2022-11-15T06:37:40;9.90;99.90
36716;DHT22;22699;51.034;3.730;2022-11-15T06:40:07;9.90;99.90
36716;DHT22;22699;51.034;3.730;2022-11-15T06:42:35;9.90;99.90
36716;DHT22;22699;51.034;3.730;2022-11-15T06:45:01;9.90;99.90
36716;DHT22;22699;51.034;3.730;2022-11-15T06:47:27;9.90;99.90
36716;DHT22;22699;51.034;3.730;2022-11-15T06:49:53;9.90;99.90
36716;DHT22;22699;51.034;3.730;2022-11-15T06:52:19;9.90;99.90
36716;DHT22;22699;51.034;3.730;2022-11-15T06:54:45;9.90;99.90
36716;DHT22;22699;51.034;3.730;2022-11-15T06:57:10;9.90;99.90
36716;DHT22;22699;51.034;3.730;2022-11-15T06:59:36;10.10;99.90
36716;DHT22;22699;51.034;3.730;2022-11-15T07:02:03;9.90;99.90
36716;DHT22;22699;51.034;3.730;2022-11-15T07:04:29;9.80;99.90
36716;DHT22;22699;51.034;3.730;2022-11-15T07:06:54;9.80;99.90
36716;DHT22;22699;51.034;3.730;2022-11-15T07:09:20;9.80;99.90
36716;DHT22;22699;51.034;3.730;2022-11-15T07:11:45;9.80;99.90
36716;DHT22;22699;51.034;3.730;2022-11-15T07:14:11;9.90;99.90
36716;DHT22;22699;51.034;3.730;2022-11-15T07:16:37;9.90;99.90
36716;DHT22;22699;51.034;3.730;2022-11-15T07:19:03;9.90;99.90
36716;DHT22;22699;51.034;3.730;2022-11-15T07:21:29;10.00;99.90
36716;DHT22;22699;51.034;3.730;2022-11-15T07:23:55;10.10;99.90
36716;DHT22;22699;51.034;3.730;2022-11-15T07:26:22;10.20;99.90
36716;DHT22;22699;51.034;3.730;2022-11-15T07:28:48;10.20;99.90
36716;DHT22;22699;51.034;3.730;2022-11-15T07:31:13;10.30;99.90
36716;DHT22;22699;51.034;3.730;2022-11-15T07:33:39;10.30;99.90
36716;DHT22;22699;51.034;3.730;2022-11-15T07:36:06;10.60;99.90
36716;DHT22;22699;51.034;3.730;2022-11-15T07:38:32;10.60;99.90
36716;DHT22;22699;51.034;3.730;2022-11-15T07:41:01;10.80;99.90
36716;DHT22;22699;51.034;3.730;2022-11-15T07:43:27;10.80;99.90
36716;DHT22;22699;51.034;3.730;2022-11-15T07:45:53;11.00;99.90
36716;DHT22;22699;51.034;3.730;2022-11-15T07:48:19;11.20;99.90
36716;DHT22;22699;51.034;3.730;2022-11-15T07:50:45;11.40;99.90
36716;DHT22;22699;51.034;3.730;2022-11-15T07:53:10;11.90;99.90
36716;DHT22;22699;51.034;3.730;2022-11-15T07:55:36;11.80;99.90
36716;DHT22;22699;51.034;3.730;2022-11-15T07:58:07;11.70;99.90
36716;DHT22;22699;51.034;3.730;2022-11-15T08:00:36;11.70;99.90
36716;DHT22;22699;51.034;3.730;2022-11-15T08:03:10;11.80;99.90
36716;DHT22;22699;51.034;3.730;2022-11-15T08:05:37;11.60;99.90
36716;DHT22;22699;51.034;3.730;2022-11-15T08:08:04;11.70;99.90
36716;DHT22;22699;51.034;3.730;2022-11-15T08:10:33;11.70;99.90
36716;DHT22;22699;51.034;3.730;2022-11-15T08:13:07;11.80;99.90
36716;DHT22;22699;51.034;3.730;2022-11-15T08:15:35;11.70;99.90
36716;DHT22;22699;51.034;3.730;2022-11-15T08:18:04;12.10;99.90
36716;DHT22;22699;51.034;3.730;2022-11-15T08:20:30;12.70;99.90
36716;DHT22;22699;51.034;3.730;2022-11-15T08:22:57;13.10;99.90
36716;DHT22;22699;51.034;3.730;2022-11-15T08:25:24;13.40;99.90
36716;DHT22;22699;51.034;3.730;2022-11-15T08:27:55;13.70;99.90
36716;DHT22;22699;51.034;3.730;2022-11-15T08:30:21;14.10;99.90
36716;DHT22;22699;51.034;3.730;2022-11-15T08:32:48;14.50;99.90
36716;DHT22;22699;51.034;3.730;2022-11-15T08:35:14;14.60;99.90
36716;DHT22;22699;51.034;3.730;2022-11-15T08:37:40;14.10;99.90
36716;DHT22;22699;51.034;3.730;2022-11-15T08:40:07;13.90;99.90
36716;DHT22;22699;51.034;3.730;2022-11-15T08:42:33;13.70;99.90
36716;DHT22;22699;51.034;3.730;2022-11-15T08:44:59;13.50;99.90
36716;DHT22;22699;51.034;3.730;2022-11-15T08:47:26;12.90;99.90
36716;DHT22;22699;51.034;3.730;2022-11-15T08:49:52;12.70;99.90
36716;DHT22;22699;51.034;3.730;2022-11-15T08:52:20;13.40;99.90
36716;DHT22;22699;51.034;3.730;2022-11-15T08:54:47;14.40;99.90
36716;DHT22;22699;51.034;3.730;2022-11-15T08:57:13;14.70;99.90
36716;DHT22;22699;51.034;3.730;2022-11-15T08:59:39;15.20;99.90
36716;DHT22;22699;51.034;3.730;2022-11-15T09:02:05;14.70;99.90
36716;DHT22;22699;51.034;3.730;2022-11-15T09:04:31;14.10;99.90
36716;DHT22;22699;51.034;3.730;2022-11-15T09:06:58;14.50;99.90
36716;DHT22;22699;51.034;3.730;2022-11-15T09:09:24;14.20;99.90
36716;DHT22;22699;51.034;3.730;2022-11-15T09:11:49;14.30;99.90
36716;DHT22;22699;51.034;3.730;2022-11-15T09:14:16;14.20;99.90
36716;DHT22;22699;51.034;3.730;2022-11-15T09:16:41;14.00;99.90
36716;DHT22;22699;51.034;3.730;2022-11-15T09:19:07;14.00;99.90
36716;DHT22;22699;51.034;3.730;2022-11-15T09:21:33;13.80;99.90
36716;DHT22;22699;51.034;3.730;2022-11-15T09:23:59;13.20;99.90
36716;DHT22;22699;51.034;3.730;2022-11-15T09:26:25;12.70;99.90
36716;DHT22;22699;51.034;3.730;2022-11-15T09:28:51;12.70;99.90
36716;DHT22;22699;51.034;3.730;2022-11-15T09:31:16;12.50;99.90
36716;DHT22;22699;51.034;3.730;2022-11-15T09:33:45;12.50;99.90
36716;DHT22;22699;51.034;3.730;2022-11-15T09:36:11;12.20;99.90
36716;DHT22;22699;51.034;3.730;2022-11-15T09:38:37;12.10;99.90
36716;DHT22;22699;51.034;3.730;2022-11-15T09:41:33;12.00;99.90
36716;DHT22;22699;51.034;3.730;2022-11-15T09:44:59;12.00;99.90
36716;DHT22;22699;51.034;3.730;2022-11-15T09:50:51;12.40;99.90
36716;DHT22;22699;51.034;3.730;2022-11-15T09:53:25;12.50;99.90
36716;DHT22;22699;51.034;3.730;2022-11-15T09:56:00;12.40;99.90
36716;DHT22;22699;51.034;3.730;2022-11-15T09:58:39;12.50;99.90
36716;DHT22;22699;51.034;3.730;2022-11-15T10:01:19;12.60;99.90
36716;DHT22;22699;51.034;3.730;2022-11-15T10:03:49;12.70;99.90
36716;DHT22;22699;51.034;3.730;2022-11-15T10:06:23;12.60;99.90
36716;DHT22;22699;51.034;3.730;2022-11-15T10:09:13;12.60;99.90
36716;DHT22;22699;51.034;3.730;2022-11-15T10:11:45;12.50;99.90
36716;DHT22;22699;51.034;3.730;2022-11-15T10:14:15;12.50;99.90
36716;DHT22;22699;51.034;3.730;2022-11-15T10:22:25;12.60;99.90
36716;DHT22;22699;51.034;3.730;2022-11-15T10:27:39;12.50;99.90
36716;DHT22;22699;51.034;3.730;2022-11-15T10:30:17;12.60;99.90
36716;DHT22;22699;51.034;3.730;2022-11-15T10:32:49;12.60;99.90
36716;DHT22;22699;51.034;3.730;2022-11-15T10:35:29;12.80;99.90
36716;DHT22;22699;51.034;3.730;2022-11-15T10:38:14;12.60;99.90
36716;DHT22;22699;51.034;3.730;2022-11-15T10:40:45;12.70;99.90
36716;DHT22;22699;51.034;3.730;2022-11-15T10:43:20;12.70;99.90
36716;DHT22;22699;51.034;3.730;2022-11-15T10:45:53;12.80;99.90
36716;DHT22;22699;51.034;3.730;2022-11-15T10:48:22;12.80;99.90
36716;DHT22;22699;51.034;3.730;2022-11-15T10:51:44;12.90;99.90
36716;DHT22;22699;51.034;3.730;2022-11-15T10:54:12;12.70;99.90
36716;DHT22;22699;51.034;3.730;2022-11-15T10:56:54;13.10;99.90
36716;DHT22;22699;51.034;3.730;2022-11-15T10:59:30;13.40;99.90
36716;DHT22;22699;51.034;3.730;2022-11-15T11:02:00;13.30;99.90
36716;DHT22;22699;51.034;3.730;2022-11-15T11:04:51;13.50;99.90
36716;DHT22;22699;51.034;3.730;2022-11-15T11:07:28;13.40;99.90
36716;DHT22;22699;51.034;3.730;2022-11-15T11:10:01;13.20;99.90
36716;DHT22;22699;51.034;3.730;2022-11-15T11:12:30;13.30;99.90
36716;DHT22;22699;51.034;3.730;2022-11-15T11:14:58;13.50;99.90
36716;DHT22;22699;51.034;3.730;2022-11-15T11:20:32;13.20;99.90
36716;DHT22;22699;51.034;3.730;2022-11-15T11:31:13;13.50;99.90
36716;DHT22;22699;51.034;3.730;2022-11-15T11:36:31;13.60;99.90
36716;DHT22;22699;51.034;3.730;2022-11-15T11:42:25;13.60;99.90
36716;DHT22;22699;51.034;3.730;2022-11-15T11:45:05;13.60;99.90
36716;DHT22;22699;51.034;3.730;2022-11-15T11:48:12;13.70;99.90
36716;DHT22;22699;51.034;3.730;2022-11-15T11:50:39;13.60;99.90
36716;DHT22;22699;51.034;3.730;2022-11-15T11:53:13;13.70;99.90
36716;DHT22;22699;51.034;3.730;2022-11-15T11:55:45;13.80;99.90
36716;DHT22;22699;51.034;3.730;2022-11-15T12:00:52;14.00;99.90
36716;DHT22;22699;51.034;3.730;2022-11-15T12:03:30;13.90;99.90
36716;DHT22;22699;51.034;3.730;2022-11-15T12:06:10;13.70;99.90
36716;DHT22;22699;51.034;3.730;2022-11-15T12:08:52;13.60;99.90
36716;DHT22;22699;51.034;3.730;2022-11-15T12:13:59;13.70;99.90
36716;DHT22;22699;51.034;3.730;2022-11-15T12:16:29;13.50;99.90
36716;DHT22;22699;51.034;3.730;2022-11-15T12:19:00;13.40;99.90
36716;DHT22;22699;51.034;3.730;2022-11-15T12:27:21;13.50;99.90
36716;DHT22;22699;51.034;3.730;2022-11-15T12:29:53;13.50;99.90
36716;DHT22;22699;51.034;3.730;2022-11-15T12:32:33;13.60;99.90
36716;DHT22;22699;51.034;3.730;2022-11-15T12:35:03;13.50;99.90
36716;DHT22;22699;51.034;3.730;2022-11-15T12:40:22;13.40;99.90
36716;DHT22;22699;51.034;3.730;2022-11-15T12:45:40;13.80;99.90
36716;DHT22;22699;51.034;3.730;2022-11-15T12:58:51;13.80;99.90
36716;DHT22;22699;51.034;3.730;2022-11-15T13:07:01;13.90;99.90
36716;DHT22;22699;51.034;3.730;2022-11-15T13:12:07;14.00;99.90
36716;DHT22;22699;51.034;3.730;2022-11-15T13:17:10;13.90;99.90
36716;DHT22;22699;51.034;3.730;2022-11-15T13:19:41;13.80;99.90
36716;DHT22;22699;51.034;3.730;2022-11-15T13:22:10;13.90;99.90
36716;DHT22;22699;51.034;3.730;2022-11-15T13:24:55;13.90;99.90
36716;DHT22;22699;51.034;3.730;2022-11-15T13:27:21;13.70;99.90
36716;DHT22;22699;51.034;3.730;2022-11-15T13:29:46;13.70;99.90
36716;DHT22;22699;51.034;3.730;2022-11-15T13:32:13;13.60;99.90
36716;DHT22;22699;51.034;3.730;2022-11-15T13:34:44;13.70;99.90
36716;DHT22;22699;51.034;3.730;2022-11-15T13:37:32;13.50;99.90
36716;DHT22;22699;51.034;3.730;2022-11-15T13:40:22;13.50;99.90
36716;DHT22;22699;51.034;3.730;2022-11-15T13:42:50;13.50;99.90
36716;DHT22;22699;51.034;3.730;2022-11-15T13:45:17;13.50;99.90
36716;DHT22;22699;51.034;3.730;2022-11-15T13:47:43;13.50;99.90
36716;DHT22;22699;51.034;3.730;2022-11-15T13:50:13;13.60;99.90
36716;DHT22;22699;51.034;3.730;2022-11-15T13:52:41;13.60;99.90
36716;DHT22;22699;51.034;3.730;2022-11-15T13:55:18;13.80;99.90
36716;DHT22;22699;51.034;3.730;2022-11-15T13:57:56;13.90;99.90
36716;DHT22;22699;51.034;3.730;2022-11-15T14:00:45;13.80;99.90
36716;DHT22;22699;51.034;3.730;2022-11-15T14:03:53;13.80;99.90
36716;DHT22;22699;51.034;3.730;2022-11-15T14:06:21;13.50;99.90
36716;DHT22;22699;51.034;3.730;2022-11-15T14:11:34;13.60;99.90
36716;DHT22;22699;51.034;3.730;2022-11-15T14:16:47;13.70;99.90
36716;DHT22;22699;51.034;3.730;2022-11-15T14:19:33;13.40;99.90
36716;DHT22;22699;51.034;3.730;2022-11-15T14:22:15;13.30;99.90
36716;DHT22;22699;51.034;3.730;2022-11-15T14:24:43;13.10;99.90
36716;DHT22;22699;51.034;3.730;2022-11-15T14:27:23;13.10;99.90
36716;DHT22;22699;51.034;3.730;2022-11-15T14:29:49;13.20;99.90
36716;DHT22;22699;51.034;3.730;2022-11-15T14:32:24;13.20;99.90
36716;DHT22;22699;51.034;3.730;2022-11-15T14:37:24;13.10;99.90
36716;DHT22;22699;51.034;3.730;2022-11-15T14:39:50;13.20;99.90
36716;DHT22;22699;51.034;3.730;2022-11-15T14:42:17;13.20;99.90
36716;DHT22;22699;51.034;3.730;2022-11-15T14:44:42;13.20;99.90
36716;DHT22;22699;51.034;3.730;2022-11-15T14:47:08;13.20;99.90
36716;DHT22;22699;51.034;3.730;2022-11-15T14:49:34;13.20;99.90
36716;DHT22;22699;51.034;3.730;2022-11-15T14:51:59;13.10;99.90
36716;DHT22;22699;51.034;3.730;2022-11-15T14:54:25;12.80;99.90
36716;DHT22;22699;51.034;3.730;2022-11-15T14:56:50;13.00;99.90
36716;DHT22;22699;51.034;3.730;2022-11-15T14:59:16;12.90;99.90
36716;DHT22;22699;51.034;3.730;2022-11-15T15:01:41;12.80;99.90
36716;DHT22;22699;51.034;3.730;2022-11-15T15:04:10;12.90;99.90
36716;DHT22;22699;51.034;3.730;2022-11-15T15:06:36;12.80;99.90
36716;DHT22;22699;51.034;3.730;2022-11-15T15:09:02;12.60;99.90
36716;DHT22;22699;51.034;3.730;2022-11-15T15:11:30;12.60;99.90
36716;DHT22;22699;51.034;3.730;2022-11-15T15:13:57;12.50;99.90
36716;DHT22;22699;51.034;3.730;2022-11-15T15:16:25;12.40;99.90
36716;DHT22;22699;51.034;3.730;2022-11-15T15:18:51;12.40;99.90
36716;DHT22;22699;51.034;3.730;2022-11-15T15:21:21;12.40;99.90
36716;DHT22;22699;51.034;3.730;2022-11-15T15:23:47;12.40;99.90
36716;DHT22;22699;51.034;3.730;2022-11-15T15:26:15;12.40;99.90
36716;DHT22;22699;51.034;3.730;2022-11-15T15:28:41;12.30;99.90
36716;DHT22;22699;51.034;3.730;2022-11-15T15:31:08;12.40;99.90
36716;DHT22;22699;51.034;3.730;2022-11-15T15:33:33;12.40;99.90
36716;DHT22;22699;51.034;3.730;2022-11-15T15:35:59;12.40;99.90
36716;DHT22;22699;51.034;3.730;2022-11-15T15:38:25;12.40;99.90
36716;DHT22;22699;51.034;3.730;2022-11-15T15:40:50;12.40;99.90
36716;DHT22;22699;51.034;3.730;2022-11-15T15:43:17;12.60;99.90
36716;DHT22;22699;51.034;3.730;2022-11-15T15:45:43;12.50;99.90
36716;DHT22;22699;51.034;3.730;2022-11-15T15:48:15;12.40;99.90
36716;DHT22;22699;51.034;3.730;2022-11-15T15:50:42;12.40;99.90
36716;DHT22;22699;51.034;3.730;2022-11-15T15:53:10;12.40;99.90
36716;DHT22;22699;51.034;3.730;2022-11-15T15:55:39;12.40;99.90
36716;DHT22;22699;51.034;3.730;2022-11-15T15:58:05;12.50;99.90
36716;DHT22;22699;51.034;3.730;2022-11-15T16:00:33;12.50;99.90
36716;DHT22;22699;51.034;3.730;2022-11-15T16:02:59;12.60;99.90
36716;DHT22;22699;51.034;3.730;2022-11-15T16:05:25;12.60;99.90
36716;DHT22;22699;51.034;3.730;2022-11-15T16:07:51;12.70;99.90
36716;DHT22;22699;51.034;3.730;2022-11-15T16:10:26;12.60;99.90
36716;DHT22;22699;51.034;3.730;2022-11-15T16:12:53;12.60;99.90
36716;DHT22;22699;51.034;3.730;2022-11-15T16:15:19;12.70;99.90
36716;DHT22;22699;51.034;3.730;2022-11-15T16:17:51;12.50;99.90
36716;DHT22;22699;51.034;3.730;2022-11-15T16:20:30;12.60;99.90
36716;DHT22;22699;51.034;3.730;2022-11-15T16:22:56;12.50;99.90
36716;DHT22;22699;51.034;3.730;2022-11-15T16:25:21;12.60;99.90
36716;DHT22;22699;51.034;3.730;2022-11-15T16:27:47;12.50;99.90
36716;DHT22;22699;51.034;3.730;2022-11-15T16:30:21;12.50;99.90
36716;DHT22;22699;51.034;3.730;2022-11-15T16:32:47;12.60;99.90
36716;DHT22;22699;51.034;3.730;2022-11-15T16:35:14;12.60;99.90
36716;DHT22;22699;51.034;3.730;2022-11-15T16:37:40;12.70;99.90
36716;DHT22;22699;51.034;3.730;2022-11-15T16:40:27;12.70;99.90
36716;DHT22;22699;51.034;3.730;2022-11-15T16:42:53;12.70;99.90
36716;DHT22;22699;51.034;3.730;2022-11-15T16:45:21;12.70;99.90
36716;DHT22;22699;51.034;3.730;2022-11-15T16:47:46;12.70;99.90
36716;DHT22;22699;51.034;3.730;2022-11-15T16:50:21;12.80;99.90
36716;DHT22;22699;51.034;3.730;2022-11-15T16:52:51;12.80;99.90
36716;DHT22;22699;51.034;3.730;2022-11-15T16:55:18;12.80;99.90
36716;DHT22;22699;51.034;3.730;2022-11-15T16:57:43;12.90;99.90
36716;DHT22;22699;51.034;3.730;2022-11-15T17:00:12;12.90;99.90
36716;DHT22;22699;51.034;3.730;2022-11-15T17:02:44;12.80;99.90
36716;DHT22;22699;51.034;3.730;2022-11-15T17:05:18;12.80;99.90
36716;DHT22;22699;51.034;3.730;2022-11-15T17:07:50;12.90;99.90
36716;DHT22;22699;51.034;3.730;2022-11-15T17:10:23;12.80;99.90
36716;DHT22;22699;51.034;3.730;2022-11-15T17:12:50;12.90;99.90
36716;DHT22;22699;51.034;3.730;2022-11-15T17:15:17;12.90;99.90
36716;DHT22;22699;51.034;3.730;2022-11-15T17:17:43;12.90;99.90
36716;DHT22;22699;51.034;3.730;2022-11-15T17:20:17;13.00;99.90
36716;DHT22;22699;51.034;3.730;2022-11-15T17:22:43;13.00;99.90
36716;DHT22;22699;51.034;3.730;2022-11-15T17:25:09;12.90;99.90
36716;DHT22;22699;51.034;3.730;2022-11-15T17:27:35;12.90;99.90
36716;DHT22;22699;51.034;3.730;2022-11-15T17:30:01;12.80;99.90
36716;DHT22;22699;51.034;3.730;2022-11-15T17:32:27;12.80;99.90
36716;DHT22;22699;51.034;3.730;2022-11-15T17:34:52;12.70;99.90
36716;DHT22;22699;51.034;3.730;2022-11-15T17:37:20;12.80;99.90
36716;DHT22;22699;51.034;3.730;2022-11-15T17:39:45;12.80;99.90
36716;DHT22;22699;51.034;3.730;2022-11-15T17:42:14;12.70;99.90
36716;DHT22;22699;51.034;3.730;2022-11-15T17:44:56;12.70;99.90
36716;DHT22;22699;51.034;3.730;2022-11-15T17:47:24;12.60;99.90
36716;DHT22;22699;51.034;3.730;2022-11-15T17:49:50;12.70;99.90